Time;durP1;ratioP1;P1;durP2;ratioP2;P2;SDS_P1;SDS_P2;PMS_P1;PMS_P2;Temp;Humidity;BMP_temperature;BMP_pressure;BME280_temperature;BME280_humidity;BME280_pressure;Samples;Min_cycle;Max_cycle;Signal;HPM_P1;HPM_P2
2022/03/30 00:00:46;;;;;;;10.73;6.77;;;15.40;40.80;;;15.91;33.76;97431.53;4941370;28;125207;-93
2022/03/30 00:03:31;;;;;;;13.37;6.93;;;15.30;41.30;;;15.93;33.68;97431.16;4940578;28;124455;-93
2022/03/30 00:09:40;;;;;;;10.37;6.67;;;13.30;39.20;;;15.89;33.85;97431.13;4923681;28;114827;-76
2022/03/30 00:15:49;;;;;;;10.27;6.90;;;15.30;41.20;;;15.83;34.20;97438.22;4942545;28;124748;-80
2022/03/30 00:21:59;;;;;;;13.87;6.57;;;15.30;41.40;;;15.77;34.36;97439.72;4943093;28;115051;-75
2022/03/30 00:28:09;;;;;;;14.00;7.93;;;15.20;41.60;;;15.70;34.57;97434.88;4942313;28;124915;-78
2022/03/30 00:34:18;;;;;;;10.03;7.03;;;15.20;41.90;;;15.66;34.78;97422.88;4942379;28;115823;-85
2022/03/30 00:40:26;;;;;;;9.07;6.90;;;17.20;44.00;;;15.65;34.81;97416.50;4942158;28;124857;-77
2022/03/30 00:46:35;;;;;;;11.20;7.50;;;14.30;41.60;;;15.67;34.91;97424.47;4942428;28;114974;-76
2022/03/30 00:55:16;;;;;;;10.93;7.17;;;13.70;41.30;;;15.62;35.04;97419.25;4956786;28;115338;-78
2022/03/30 01:01:25;;;;;;;10.17;7.03;;;15.00;42.70;;;15.60;35.50;97425.19;4941417;28;125137;-83
2022/03/30 01:07:34;;;;;;;11.83;7.80;;;15.00;42.90;;;15.56;35.28;97435.50;4941975;28;115260;-91
2022/03/30 01:13:43;;;;;;;11.90;8.10;;;14.90;43.00;;;15.42;35.69;97419.41;4941571;28;125102;-82
2022/03/30 01:19:52;;;;;;;13.00;8.67;;;12.50;41.10;;;15.34;35.81;97416.91;4941716;28;115302;-80
2022/03/30 01:26:04;;;;;;;10.87;7.00;;;14.70;43.30;;;15.30;36.09;97411.31;4940373;28;125078;-79
2022/03/30 01:32:25;;;;;;;10.90;7.10;;;14.70;43.50;;;15.29;36.06;97401.34;4941284;28;116204;-76
2022/03/30 01:38:33;;;;;;;10.90;6.03;;;14.80;43.80;;;15.31;36.02;97396.19;4953923;28;125138;-78
2022/03/30 01:44:43;;;;;;;11.10;7.27;;;14.60;43.70;;;15.27;36.09;97389.81;4961167;28;115257;-76
2022/03/30 02:16:01;;;;;;;10.83;7.40;;;14.50;44.40;;;15.24;36.72;97332.91;4902355;28;125126;-75
2022/03/30 02:22:09;;;;;;;10.30;6.87;;;14.60;44.60;;;15.29;36.93;97323.44;4902615;28;115284;-75
2022/03/30 02:28:18;;;;;;;13.20;8.40;;;14.70;44.90;;;15.25;36.97;97317.03;4921336;28;125184;-75
2022/03/30 02:34:28;;;;;;;12.53;7.90;;;14.60;45.00;;;15.20;37.18;97306.22;4921105;28;116477;-75
2022/03/30 02:40:36;;;;;;;10.93;7.33;;;14.50;45.00;;;15.23;37.09;97305.47;4924682;28;125072;-76
2022/03/30 02:46:45;;;;;;;9.07;6.90;;;12.70;43.50;;;15.27;37.12;97300.75;4925024;28;115314;-76
2022/03/30 03:11:01;;;;;;;9.03;6.40;;;14.70;45.60;;;15.39;37.40;97285.75;4943876;28;114970;-74
2022/03/30 03:17:10;;;;;;;9.10;6.50;;;14.20;45.30;;;15.36;37.33;97287.31;4962985;28;124708;-76
2022/03/30 03:23:18;;;;;;;12.30;7.37;;;16.30;47.10;;;15.34;37.41;97278.59;4958797;28;114974;-76
2022/03/30 03:29:28;;;;;;;10.23;7.83;;;14.60;45.70;;;15.29;37.59;97273.34;4943350;28;124824;-75
2022/03/30 03:35:37;;;;;;;11.00;6.70;;;14.70;46.00;;;15.30;37.50;97280.50;4943401;28;115934;-74
2022/03/30 03:41:45;;;;;;;10.23;7.00;;;12.80;44.40;;;15.22;37.73;97273.28;4951950;28;124743;-76
2022/03/30 04:01:52;;;;;;;10.73;6.87;;;14.10;45.80;;;15.18;37.71;97266.88;4961656;28;124978;-75
2022/03/30 04:08:01;;;;;;;11.13;6.37;;;14.70;46.50;;;15.22;37.91;97264.94;4962453;28;115426;-79
2022/03/30 04:14:10;;;;;;;10.07;6.60;;;14.50;46.30;;;15.22;37.73;97260.16;4962071;28;124946;-77
2022/03/30 04:20:18;;;;;;;7.30;5.57;;;14.70;46.40;;;15.26;37.91;97254.66;4962256;28;115331;-79
2022/03/30 04:26:27;;;;;;;7.70;5.53;;;14.70;46.40;;;15.28;37.69;97254.25;4961764;28;125237;-77
2022/03/30 04:32:36;;;;;;;9.40;6.00;;;14.80;46.70;;;15.29;37.94;97250.31;4961365;28;116223;-75
2022/03/30 04:38:44;;;;;;;8.17;5.77;;;14.60;46.70;;;15.28;38.19;97254.25;4961693;28;125185;-75
2022/03/30 04:44:53;;;;;;;15.13;6.97;;;14.70;46.90;;;15.25;38.55;97247.47;4961680;28;115502;-76
2022/03/30 04:56:35;;;;;;;14.77;8.47;;;14.40;48.20;;;14.75;40.73;97258.81;4981162;28;115356;-78
2022/03/30 05:02:43;;;;;;;18.67;9.90;;;14.10;49.90;;;14.41;42.52;97260.72;4980519;28;125069;-75
2022/03/30 05:05:30;;;;;;;15.70;9.00;;;12.70;49.90;;;14.28;42.58;97262.13;4980656;28;124467;-76
2022/03/30 05:11:39;;;;;;;17.33;8.33;;;13.70;52.00;;;13.94;44.33;97261.97;4961519;28;115097;-77
2022/03/30 05:17:57;;;;;;;15.27;8.63;;;12.30;52.10;;;13.71;45.06;97267.56;4961044;28;124696;-77
2022/03/30 05:24:07;;;;;;;15.97;8.13;;;12.40;53.30;;;13.53;45.34;97264.47;4961189;28;115078;-76
2022/03/30 05:30:15;;;;;;;16.10;8.00;;;13.20;54.80;;;13.40;46.40;97263.84;4960776;28;124791;-76
2022/03/30 05:43:49;;;;;;;13.63;5.87;;;12.90;56.40;;;13.25;47.06;97261.97;4980122;28;124745;-78
2022/03/30 05:58:39;;;;;;;11.40;5.47;;;12.90;57.70;;;13.46;47.47;97264.38;5509724;23;97218;-75
2022/03/30 06:04:53;;;;;;;7.70;4.63;;;12.40;57.80;;;13.54;47.89;97262.50;4979063;28;125443;-78
2022/03/30 06:11:02;;;;;;;18.77;6.23;;;12.90;59.00;;;13.60;48.38;97255.50;4979673;28;115281;-89
2022/03/30 06:13:29;;;;;;;10.20;6.00;;;11.40;59.00;;;13.58;48.46;97255.84;4982688;28;114963;-90
2022/03/30 06:15:56;;;;;;;14.83;6.60;;;12.90;60.60;;;13.60;48.66;97258.28;4961635;28;123772;-89
2022/03/30 06:22:09;;;;;;;9.23;4.83;;;11.20;58.50;;;13.60;48.56;97250.75;4982489;28;115406;-89
2022/03/30 06:24:38;;;;;;;10.80;5.70;;;11.10;58.80;;;13.66;48.78;97254.00;4961880;28;114758;-94
2022/03/30 06:27:23;;;;;;;6.40;4.80;;;13.00;60.80;;;13.66;48.66;97238.16;4965231;28;123759;-78
2022/03/30 06:29:50;;;;;;;6.77;4.37;;;13.00;61.10;;;13.73;48.70;97243.03;4946010;28;122601;-86
2022/03/30 06:36:06;;;;;;;7.40;4.83;;;13.10;61.00;;;13.76;49.02;97241.50;4968797;28;115519;-80
2022/03/30 06:42:16;;;;;;;8.00;5.70;;;13.20;61.40;;;13.79;48.95;97244.31;4982710;28;124842;-81
2022/03/30 06:44:45;;;;;;;13.07;6.10;;;14.70;63.40;;;13.81;49.34;97243.91;4982044;28;114041;-92
2022/03/30 06:50:09;;;;;;;8.70;5.53;;;13.20;61.90;;;13.83;49.14;97233.25;4987398;23;97513;-92
2022/03/30 06:53:32;;;;;;;9.00;5.23;;;14.80;64.20;;;13.83;48.92;97233.25;4887936;28;124076;-88
2022/03/30 06:56:00;;;;;;;7.30;6.00;;;13.20;62.10;;;13.85;49.04;97236.47;4909331;28;114261;-91
2022/03/30 07:02:28;;;;;;;9.00;4.90;;;13.20;62.50;;;13.83;49.12;97219.38;4896718;28;124672;-90
2022/03/30 07:04:56;;;;;;;9.00;5.90;;;13.20;62.50;;;13.83;49.64;97224.94;4904306;28;123500;-90
2022/03/30 07:10:31;;;;;;;7.67;5.57;;;13.20;63.60;;;13.81;49.20;97211.44;4903976;28;114069;-90
2022/03/30 07:13:57;;;;;;;9.90;5.97;;;13.20;62.90;;;13.79;49.26;97219.34;4918579;28;122492;-88
2022/03/30 07:16:42;;;;;;;6.63;4.90;;;13.20;63.10;;;13.80;49.46;97214.56;4906512;28;124496;-91
2022/03/30 07:19:08;;;;;;;9.63;4.93;;;13.20;63.40;;;13.78;49.75;97220.50;4896211;28;114267;-89
2022/03/30 07:22:13;;;;;;;12.10;6.00;;;13.20;63.70;;;13.76;49.39;97222.06;4904167;28;114186;-90
2022/03/30 07:24:42;;;;;;;14.53;5.87;;;13.20;63.40;;;13.75;49.59;97215.69;4887285;28;124798;-92
2022/03/30 07:27:09;;;;;;;9.33;5.13;;;13.20;63.60;;;13.78;49.40;97205.81;4874705;28;122136;-93
2022/03/30 07:30:32;;;;;;;10.40;4.50;;;13.20;63.70;;;13.82;49.61;97206.69;4927847;28;114506;-92
2022/03/30 07:32:59;;;;;;;5.63;4.70;;;13.20;63.90;;;13.84;49.62;97215.44;4900659;28;115048;-89
2022/03/30 07:36:03;;;;;;;9.80;5.10;;;13.20;64.10;;;13.85;49.69;97205.94;4917852;28;125267;-90
2022/03/30 07:38:30;;;;;;;12.43;5.53;;;12.40;63.70;;;13.87;49.72;97200.81;4907161;28;123241;-89
2022/03/30 07:41:00;;;;;;;12.97;6.67;;;13.20;64.60;;;13.87;50.00;97200.81;4901824;28;114708;-91
2022/03/30 07:44:05;;;;;;;6.40;5.43;;;13.20;65.10;;;13.82;49.92;97201.13;4906177;28;113404;-89
2022/03/30 07:46:32;;;;;;;10.40;5.67;;;13.20;64.90;;;13.83;49.81;97194.38;4899716;28;121944;-90
2022/03/30 07:48:59;;;;;;;11.40;6.70;;;13.20;65.20;;;13.84;50.20;97207.13;4934076;28;123965;-89
2022/03/30 07:51:44;;;;;;;9.90;6.03;;;13.20;65.30;;;13.84;49.80;97201.56;4965728;28;113792;-89
2022/03/30 07:54:30;;;;;;;9.23;5.60;;;13.20;65.30;;;13.81;50.01;97194.78;4942808;28;113885;-88
2022/03/30 07:56:57;;;;;;;11.33;6.23;;;13.20;65.50;;;13.78;50.22;97200.25;4943000;28;124180;-88
2022/03/30 08:00:05;;;;;;;10.10;6.57;;;13.20;65.70;;;13.75;50.10;97187.13;4932610;28;123144;-88
2022/03/30 08:02:32;;;;;;;10.87;5.90;;;13.20;65.60;;;13.74;50.00;97193.88;4952971;28;113964;-89
2022/03/30 08:05:02;;;;;;;7.83;4.97;;;13.20;65.60;;;13.75;50.00;97192.69;4934447;28;113775;-90
2022/03/30 08:07:30;;;;;;;14.87;6.40;;;13.10;65.60;;;13.75;50.07;97196.25;4963239;28;123317;-92
2022/03/30 08:09:59;;;;;;;14.40;6.80;;;13.20;66.10;;;13.75;50.34;97198.22;4950824;28;124100;-90
2022/03/30 08:12:44;;;;;;;11.17;6.17;;;13.10;66.00;;;13.74;50.04;97196.63;4969984;28;114335;-91
2022/03/30 08:15:15;;;;;;;11.90;5.87;;;13.20;66.10;;;13.73;49.86;97187.53;4960940;28;113405;-90
2022/03/30 08:17:44;;;;;;;10.13;5.30;;;13.10;66.10;;;13.72;50.00;97190.66;4956166;28;123654;-90
2022/03/30 08:24:14;;;;;;;12.80;6.57;;;13.10;66.50;;;13.63;50.32;97205.59;4957599;28;115857;-91
2022/03/30 08:26:41;;;;;;;10.80;5.90;;;13.10;66.60;;;13.62;50.26;97204.00;4941884;28;113380;-90
2022/03/30 08:29:11;;;;;;;6.70;5.13;;;13.00;66.60;;;13.64;50.40;97201.63;4953713;28;124025;-92
2022/03/30 08:31:39;;;;;;;9.40;5.80;;;13.10;66.80;;;13.65;50.49;97206.03;4963745;28;124032;-90
2022/03/30 08:34:05;;;;;;;13.33;5.87;;;13.10;67.20;;;13.62;50.64;97204.00;4939492;28;112820;-92
2022/03/30 08:40:13;;;;;;;9.63;5.70;;;13.00;67.20;;;13.58;50.63;97203.13;4952607;28;124091;-92
2022/03/30 08:42:41;;;;;;;8.47;5.93;;;13.00;67.50;;;13.57;50.63;97203.53;4955719;28;122509;-91
2022/03/30 08:45:10;;;;;;;8.67;5.80;;;13.50;68.10;;;13.56;50.68;97199.13;4957826;28;114103;-92
2022/03/30 08:47:56;;;;;;;14.83;5.93;;;13.00;68.40;;;13.56;50.47;97199.91;4963976;28;113290;-91
2022/03/30 08:50:25;;;;;;;8.23;5.20;;;13.00;67.80;;;13.56;50.86;97199.91;4962451;28;126538;-91
2022/03/30 08:53:31;;;;;;;13.57;5.77;;;13.00;68.10;;;13.60;50.68;97206.34;4928208;28;121567;-91
2022/03/30 08:56:02;;;;;;;10.60;5.77;;;13.00;68.40;;;13.63;51.10;97202.03;4954477;28;113304;-91
2022/03/30 08:59:04;;;;;;;11.70;6.33;;;13.00;68.70;;;13.62;51.08;97208.72;4955926;28;114467;-93
2022/03/30 09:01:50;;;;;;;8.43;5.67;;;13.00;69.20;;;13.59;51.19;97198.38;4954979;28;122862;-91
2022/03/30 09:05:09;;;;;;;9.00;5.97;;;13.00;69.10;;;13.59;51.12;97195.59;4930952;28;123690;-91
2022/03/30 09:07:37;;;;;;;9.17;5.27;;;13.00;69.20;;;13.62;51.16;97201.22;4944575;28;114219;-90
2022/03/30 09:10:25;;;;;;;11.03;5.00;;;13.00;69.70;;;13.62;51.29;97192.91;4935022;28;113723;-91
2022/03/30 09:12:52;;;;;;;9.03;5.70;;;13.00;69.80;;;13.60;51.26;97195.25;4932670;28;124632;-90
2022/03/30 09:15:21;;;;;;;10.87;5.63;;;13.00;69.90;;;13.61;51.19;97185.72;4955049;28;122860;-90
2022/03/30 09:17:56;;;;;;;15.30;5.50;;;13.00;70.00;;;13.63;51.50;97193.69;4944591;28;115270;-91
2022/03/30 09:20:25;;;;;;;9.80;6.07;;;13.00;70.20;;;13.64;51.43;97190.53;4940445;28;115141;-91
2022/03/30 09:23:13;;;;;;;6.83;4.90;;;13.00;70.50;;;13.69;51.44;97189.41;4963469;28;124809;-87
2022/03/30 09:25:49;;;;;;;10.73;4.43;;;13.10;70.80;;;13.69;51.48;97187.44;4948756;28;124240;-91
2022/03/30 09:28:34;;;;;;;11.73;4.93;;;13.00;70.80;;;13.70;51.69;97183.50;4948381;28;113961;-92
2022/03/30 09:31:20;;;;;;;13.13;5.93;;;13.10;71.20;;;13.72;51.65;97187.88;4966364;28;112244;-93
2022/03/30 09:33:46;;;;;;;10.47;4.90;;;13.10;71.20;;;13.74;51.61;97180.78;4944621;28;122314;-90
2022/03/30 09:36:38;;;;;;;11.43;4.87;;;13.10;71.40;;;13.76;51.62;97192.31;4959952;28;123852;-89
2022/03/30 09:39:06;;;;;;;10.60;5.17;;;13.10;71.60;;;13.72;51.59;97182.31;4953108;28;114394;-91
2022/03/30 09:42:11;;;;;;;9.63;4.97;;;13.10;71.60;;;13.70;51.66;97183.50;4944230;28;113437;-91
2022/03/30 09:44:51;;;;;;;8.70;4.63;;;13.10;71.70;;;13.74;51.77;97185.53;4949635;28;124295;-90
2022/03/30 09:47:21;;;;;;;10.90;5.47;;;13.10;71.90;;;13.69;51.69;97178.31;4938981;28;123761;-91
2022/03/30 09:50:08;;;;;;;9.17;5.40;;;13.10;72.10;;;13.66;51.66;97179.88;4936498;28;113381;-91
2022/03/30 09:52:34;;;;;;;6.60;5.10;;;13.10;72.10;;;13.64;52.13;97168.31;4928573;28;114807;-91
2022/03/30 09:55:58;;;;;;;10.97;4.93;;;13.10;72.40;;;13.63;52.04;97171.50;4960827;28;123654;-89
2022/03/30 09:58:28;;;;;;;7.97;5.20;;;13.10;72.40;;;13.62;52.09;97167.94;4955103;28;123292;-89
2022/03/30 10:01:34;;;;;;;14.80;5.83;;;13.10;72.70;;;13.61;52.23;97169.06;4926888;28;113417;-88
2022/03/30 10:04:08;;;;;;;9.57;4.97;;;13.10;73.00;;;13.57;52.22;97165.47;4937969;28;114183;-89
2022/03/30 10:06:40;;;;;;;9.43;5.43;;;13.00;72.90;;;13.54;52.21;97163.44;4941179;28;122517;-88
2022/03/30 10:09:26;;;;;;;9.50;4.90;;;11.00;71.00;;;13.55;52.49;97159.47;4958825;28;123150;-88
2022/03/30 10:11:53;;;;;;;6.17;3.80;;;13.00;73.20;;;13.52;52.25;97154.69;4954209;28;114763;-90
2022/03/30 10:14:43;;;;;;;9.80;4.80;;;13.00;73.30;;;13.54;52.38;97151.50;4934621;28;113325;-89
2022/03/30 10:21:15;;;;;;;11.10;4.63;;;13.00;73.80;;;13.55;52.70;97151.16;4960635;28;124515;-90
2022/03/30 10:24:23;;;;;;;11.60;4.70;;;13.00;74.00;;;13.60;52.48;97147.28;4958447;28;114040;-92
2022/03/30 10:27:30;;;;;;;5.70;4.13;;;13.00;74.10;;;13.68;52.40;97141.44;4933869;28;113905;-89
2022/03/30 10:30:35;;;;;;;5.53;4.20;;;13.10;74.40;;;13.75;52.74;97134.38;4940674;28;123159;-89
2022/03/30 10:33:04;;;;;;;11.53;5.23;;;13.10;74.90;;;13.77;52.93;97129.28;4946819;28;123357;-90
2022/03/30 10:35:48;;;;;;;9.90;5.67;;;13.10;75.10;;;13.82;52.64;97134.50;4942422;28;113419;-90
2022/03/30 10:38:16;;;;;;;14.23;5.90;;;13.20;75.10;;;13.86;52.91;97130.63;4939537;28;112267;-89
2022/03/30 10:40:44;;;;;;;9.73;4.50;;;13.20;76.00;;;13.91;52.76;97127.47;4901682;28;123230;-91
2022/03/30 10:43:13;;;;;;;13.40;4.77;;;13.30;75.60;;;14.00;52.80;97124.44;4910149;28;123926;-89
2022/03/30 10:45:57;;;;;;;7.10;4.30;;;12.10;74.40;;;14.07;52.40;97127.31;4901196;28;112953;-90
2022/03/30 10:48:29;;;;;;;6.47;4.30;;;13.40;75.70;;;14.15;52.41;97122.66;4893220;28;112127;-90
2022/03/30 10:51:19;;;;;;;9.33;4.40;;;13.40;75.60;;;14.21;52.35;97123.09;4909212;28;122664;-90
2022/03/30 10:54:43;;;;;;;6.10;4.00;;;13.50;75.80;;;14.25;52.31;97113.66;4884696;28;122081;-90
2022/03/30 10:57:09;;;;;;;7.47;4.47;;;13.60;75.80;;;14.27;52.53;97111.31;4886417;28;112784;-90
2022/03/30 10:59:37;;;;;;;8.57;4.30;;;13.90;76.10;;;14.31;52.25;97114.13;4885243;28;114185;-88
2022/03/30 11:02:13;;;;;;;9.70;4.67;;;13.60;75.80;;;14.37;52.10;97107.03;4864676;28;121533;-90
2022/03/30 11:04:46;;;;;;;6.83;3.50;;;13.70;75.90;;;14.42;52.09;97101.13;4881659;28;124041;-86
2022/03/30 11:10:53;;;;;;;6.83;4.30;;;13.80;76.00;;;14.47;52.10;97095.25;4920460;28;115414;-89
2022/03/30 11:17:14;;;;;;;7.40;4.67;;;13.80;76.20;;;14.48;52.13;97087.69;4956724;28;123989;-91
2022/03/30 11:19:58;;;;;;;10.73;5.17;;;13.80;76.20;;;14.52;52.16;97086.59;4954739;28;114617;-90
2022/03/30 11:22:36;;;;;;;6.57;4.63;;;13.80;76.20;;;14.55;52.18;97088.63;4953206;28;113200;-91
2022/03/30 11:25:24;;;;;;;6.17;4.43;;;13.90;76.30;;;14.57;52.17;97085.47;4919772;28;123426;-91
2022/03/30 11:28:01;;;;;;;4.90;3.77;;;13.90;76.30;;;14.60;52.19;97083.91;4937449;28;123154;-88
2022/03/30 11:30:31;;;;;;;5.87;3.97;;;13.90;76.40;;;14.60;52.49;97081.13;4930532;28;114019;-92
2022/03/30 11:33:23;;;;;;;8.30;4.70;;;12.40;75.20;;;14.57;52.76;97079.91;4945059;28;113044;-89
2022/03/30 11:35:52;;;;;;;8.20;5.03;;;13.90;77.10;;;14.53;52.82;97079.88;4932730;28;124128;-89
2022/03/30 11:38:41;;;;;;;14.50;6.40;;;13.90;77.30;;;14.52;52.85;97089.38;4950145;28;124337;-91
2022/03/30 11:41:09;;;;;;;8.73;5.53;;;13.90;77.60;;;14.52;52.94;97078.25;4948827;28;114075;-89
2022/03/30 11:46:37;;;;;;;7.73;5.30;;;13.90;77.80;;;14.51;53.03;97076.66;4961910;28;124130;-89
2022/03/30 11:49:06;;;;;;;10.93;4.83;;;13.90;77.90;;;14.47;53.05;97069.44;4948901;28;123792;-90
2022/03/30 11:51:34;;;;;;;10.87;5.80;;;13.90;77.80;;;14.47;53.07;97075.78;4934488;28;112884;-89
2022/03/30 11:54:21;;;;;;;12.10;5.63;;;13.90;77.80;;;14.45;52.96;97071.78;4942872;28;113205;-90
2022/03/30 11:57:09;;;;;;;8.87;4.70;;;13.90;77.90;;;14.45;53.00;97069.03;4949730;28;123151;-90
2022/03/30 12:00:33;;;;;;;11.47;7.13;;;13.90;78.00;;;14.39;53.27;97063.00;4956281;28;124511;-91
2022/03/30 12:03:01;;;;;;;11.90;6.10;;;13.80;78.20;;;14.34;53.09;97055.00;4958200;28;114364;-89
2022/03/30 12:06:26;;;;;;;14.37;8.10;;;13.80;78.10;;;14.32;52.94;97057.38;4957870;28;114316;-89
2022/03/30 12:08:53;;;;;;;10.90;7.03;;;13.80;78.30;;;14.26;53.18;97054.13;4958864;28;124665;-89
2022/03/30 12:12:18;;;;;;;9.90;6.90;;;13.70;78.00;;;14.24;52.93;97053.72;4951669;28;123711;-89
2022/03/30 12:14:59;;;;;;;10.00;6.50;;;13.70;77.90;;;14.27;52.89;97066.06;4953470;28;114337;-90
2022/03/30 12:18:05;;;;;;;8.93;7.10;;;13.70;77.80;;;14.26;52.90;97059.69;4951019;28;113378;-91
2022/03/30 12:21:13;;;;;;;12.80;9.33;;;13.70;78.00;;;14.24;52.92;97066.78;4938817;28;126359;-90
2022/03/30 12:24:11;;;;;;;14.40;8.00;;;13.70;78.10;;;14.17;53.20;97061.97;4927324;28;123259;-91
2022/03/30 12:26:43;;;;;;;15.03;9.90;;;13.70;78.20;;;14.09;53.46;97058.31;4960423;28;113845;-91
2022/03/30 12:29:14;;;;;;;15.73;9.00;;;13.60;78.30;;;14.04;53.51;97060.63;4946280;28;112727;-90
2022/03/30 12:31:54;;;;;;;10.80;7.40;;;13.60;78.30;;;14.05;53.40;97065.81;4950030;28;124052;-91
2022/03/30 12:34:24;;;;;;;13.27;7.17;;;13.60;78.30;;;14.08;53.56;97070.59;4951240;28;123674;-91
2022/03/30 12:37:01;;;;;;;12.63;8.03;;;13.60;78.30;;;14.06;54.19;97077.72;4929168;28;114510;-89
2022/03/30 12:39:43;;;;;;;8.93;5.67;;;13.60;79.80;;;13.98;54.14;97060.16;4941047;28;113686;-90
2022/03/30 12:42:30;;;;;;;7.57;5.13;;;13.50;79.50;;;13.87;54.54;97059.22;4934807;28;123418;-90
2022/03/30 12:45:10;;;;;;;5.40;4.63;;;13.40;79.70;;;13.75;55.50;97067.78;4936569;28;122112;-90
2022/03/30 12:47:59;;;;;;;5.50;4.20;;;13.30;81.20;;;13.56;55.30;97075.06;4956616;28;114310;-90
2022/03/30 12:50:33;;;;;;;5.10;3.80;;;13.20;81.00;;;13.43;55.48;97068.94;4949653;28;113293;-90
2022/03/30 12:53:17;;;;;;;4.90;4.20;;;13.10;81.00;;;13.29;55.49;97079.00;4966103;28;124100;-92
2022/03/30 12:55:51;;;;;;;4.07;3.67;;;12.90;81.10;;;13.17;55.83;97061.38;4960612;28;123018;-89
2022/03/30 12:58:22;;;;;;;4.20;3.73;;;12.80;81.20;;;13.06;56.00;97074.28;4952676;28;114303;-91
2022/03/30 13:00:54;;;;;;;4.63;4.00;;;12.70;81.40;;;12.99;56.22;97063.06;4966739;28;115409;-90
2022/03/30 13:03:31;;;;;;;6.63;4.80;;;12.60;81.80;;;12.92;56.68;97066.53;4965497;28;124321;-91
2022/03/30 13:06:19;;;;;;;4.93;4.43;;;12.50;82.60;;;12.80;56.95;97059.19;4962249;28;123499;-89
2022/03/30 13:12:40;;;;;;;4.80;3.93;;;12.40;83.00;;;12.68;56.70;97053.00;4929614;28;114650;-90
2022/03/30 13:15:34;;;;;;;4.30;3.90;;;12.30;83.10;;;12.67;57.10;97062.50;4928272;28;123404;-90
2022/03/30 13:18:04;;;;;;;4.20;3.83;;;12.30;83.60;;;12.63;57.31;97059.69;4898222;28;121866;-89
2022/03/30 13:20:37;;;;;;;6.03;3.93;;;12.20;83.80;;;12.62;57.23;97058.06;4918814;28;112248;-89
2022/03/30 13:23:08;;;;;;;4.23;3.83;;;12.20;84.00;;;12.63;57.13;97054.16;4900646;28;114706;-89
2022/03/30 13:26:29;;;;;;;4.37;3.77;;;12.20;84.30;;;12.62;57.22;97041.44;4906741;28;124288;-90
2022/03/30 13:28:59;;;;;;;4.97;4.47;;;12.20;84.20;;;12.65;57.12;97046.25;4922846;28;124460;-90
2022/03/30 13:31:48;;;;;;;4.43;4.03;;;12.20;84.80;;;12.66;57.37;97053.41;4919746;28;113791;-88
2022/03/30 13:35:12;;;;;;;4.63;4.17;;;12.30;85.10;;;12.64;57.73;97039.13;4898325;28;112789;-90
2022/03/30 13:37:43;;;;;;;6.60;4.70;;;12.20;85.10;;;12.70;57.52;97026.53;4909071;28;123054;-90
2022/03/30 13:40:10;;;;;;;5.40;4.90;;;12.20;85.30;;;12.76;57.41;97038.13;4933849;28;123192;-89
2022/03/30 13:42:37;;;;;;;6.00;5.20;;;12.30;85.60;;;12.80;57.25;97039.00;4949508;28;114492;-89
2022/03/30 13:45:04;;;;;;;5.67;5.00;;;12.30;85.30;;;12.81;57.09;97035.84;4931666;28;112129;-91
2022/03/30 13:47:31;;;;;;;5.47;4.23;;;12.30;85.10;;;12.79;57.08;97040.97;4938041;28;123850;-90
2022/03/30 13:49:59;;;;;;;5.70;4.87;;;12.30;85.10;;;12.79;57.05;97045.72;4929902;28;123310;-89
2022/03/30 13:52:47;;;;;;;4.70;4.20;;;12.30;85.00;;;12.81;57.01;97037.81;4953502;28;115447;-90
2022/03/30 13:55:14;;;;;;;5.73;4.50;;;12.30;85.00;;;12.83;57.04;97041.81;4968468;28;114449;-90
2022/03/30 14:01:27;;;;;;;5.57;4.97;;;12.40;84.80;;;12.89;56.42;97044.28;4966365;28;124727;-86
2022/03/30 14:03:56;;;;;;;6.70;5.47;;;12.40;84.90;;;12.93;56.76;97039.59;4940523;28;113208;-91
2022/03/30 14:07:03;;;;;;;5.93;5.37;;;12.40;85.00;;;12.90;56.53;97029.25;4966550;28;114464;-90
2022/03/30 14:09:52;;;;;;;4.90;4.23;;;12.40;84.60;;;12.92;56.45;97038.81;4936632;28;122464;-90
2022/03/30 14:12:19;;;;;;;5.10;4.50;;;12.40;84.40;;;12.94;56.44;97032.88;4943657;28;123606;-90
2022/03/30 14:14:47;;;;;;;5.30;4.80;;;12.40;84.20;;;12.96;56.38;97027.75;4965654;28;114252;-90
2022/03/30 14:17:33;;;;;;;4.40;3.60;;;12.40;84.20;;;12.99;55.92;97027.03;4939874;28;113354;-90
2022/03/30 14:20:01;;;;;;;4.37;3.80;;;12.50;84.20;;;13.01;56.04;97027.47;4931165;28;123538;-90
2022/03/30 14:22:49;;;;;;;5.37;4.30;;;12.50;84.10;;;13.01;55.73;97019.13;4967811;28;122943;-92
2022/03/30 14:25:18;;;;;;;4.83;4.00;;;12.50;83.90;;;13.00;55.89;97023.06;4964630;28;114527;-90
2022/03/30 14:27:45;;;;;;;6.13;5.07;;;12.50;83.80;;;13.01;56.11;97014.38;4947814;28;113471;-89
2022/03/30 14:30:33;;;;;;;5.90;5.10;;;12.50;84.20;;;13.03;55.79;97017.59;4922339;28;123484;-91
2022/03/30 14:33:20;;;;;;;7.27;5.30;;;12.50;84.50;;;13.04;56.07;97018.38;4960215;28;124408;-89
2022/03/30 14:35:48;;;;;;;8.00;4.90;;;12.50;84.30;;;13.05;55.85;97020.78;4957050;28;113794;-89
2022/03/30 14:38:35;;;;;;;5.17;4.50;;;12.50;84.20;;;13.09;55.45;97015.31;4951657;28;113497;-90
2022/03/30 14:41:04;;;;;;;5.20;4.13;;;12.50;83.90;;;13.13;55.71;97024.47;4949897;28;122886;-89
2022/03/30 14:44:09;;;;;;;5.17;4.67;;;12.60;83.80;;;13.13;55.40;97013.38;4965032;28;124474;-92
2022/03/30 14:47:34;;;;;;;6.60;5.00;;;12.60;83.60;;;13.13;55.24;97010.59;4956226;28;113715;-90
2022/03/30 14:50:21;;;;;;;6.80;5.63;;;12.60;83.50;;;13.11;55.35;97012.13;4962263;28;114794;-89
2022/03/30 14:53:12;;;;;;;5.93;5.30;;;12.60;83.40;;;13.13;55.15;97013.38;4962032;28;124826;-90
2022/03/30 14:55:40;;;;;;;6.50;5.50;;;12.60;83.40;;;13.15;55.35;97005.47;4965210;28;123631;-91
2022/03/30 14:58:26;;;;;;;9.90;6.30;;;12.60;83.30;;;13.20;54.99;97004.38;4944281;28;114016;-90
2022/03/30 15:01:01;;;;;;;6.40;5.70;;;12.60;83.30;;;13.24;55.07;97006.03;4929444;28;112430;-89
2022/03/30 15:03:49;;;;;;;6.90;5.40;;;12.70;83.30;;;13.31;54.86;97001.78;4948396;28;123908;-91
2022/03/30 15:06:21;;;;;;;7.33;6.10;;;12.70;83.20;;;13.35;54.62;96997.06;4961794;28;122387;-91
2022/03/30 15:09:13;;;;;;;9.73;7.23;;;13.20;83.60;;;13.35;54.78;96994.28;4950563;28;114355;-91
2022/03/30 15:11:44;;;;;;;10.83;7.90;;;12.80;83.20;;;13.34;54.58;96998.25;4966556;28;112572;-91
2022/03/30 15:14:13;;;;;;;13.83;9.57;;;12.80;83.50;;;13.32;54.68;97003.38;4951195;28;123608;-89
2022/03/30 15:16:39;;;;;;;13.97;9.90;;;12.80;83.40;;;13.34;54.76;97001.81;4941682;28;124670;-88
2022/03/30 15:19:08;;;;;;;12.07;8.67;;;12.70;83.40;;;13.29;54.80;97006.91;4946130;28;113252;-89
2022/03/30 15:21:42;;;;;;;12.47;8.40;;;12.70;83.60;;;13.23;54.90;96989.75;4955452;28;113795;-90
2022/03/30 15:24:11;;;;;;;11.77;9.10;;;12.80;83.20;;;13.20;54.81;96984.97;4944582;28;123366;-88
2022/03/30 15:26:38;;;;;;;10.93;8.67;;;12.60;84.00;;;13.20;54.50;96987.72;4941433;28;123654;-89
2022/03/30 15:29:07;;;;;;;8.40;7.20;;;12.60;82.60;;;13.20;54.49;96990.50;4955662;28;113241;-88
2022/03/30 15:31:37;;;;;;;13.00;8.70;;;12.70;83.20;;;13.23;54.89;96985.00;4959226;28;113301;-89
2022/03/30 15:34:04;;;;;;;15.00;8.10;;;12.70;83.40;;;13.22;54.43;96993.72;4949261;28;122383;-88
2022/03/30 15:36:31;;;;;;;10.17;8.33;;;12.60;82.90;;;13.22;54.33;96988.97;4965587;28;124321;-89
2022/03/30 15:38:57;;;;;;;9.73;7.90;;;12.60;82.80;;;13.18;54.38;96990.88;4950413;28;114918;-88
2022/03/30 15:41:26;;;;;;;10.70;9.20;;;14.70;85.00;;;13.16;54.31;96987.66;4945986;28;114092;-88
2022/03/30 15:44:33;;;;;;;10.07;8.77;;;12.70;82.40;;;13.14;54.31;96983.69;4952462;28;123432;-88
2022/03/30 15:47:02;;;;;;;10.17;9.07;;;12.60;82.20;;;13.13;54.17;96977.31;4965214;28;123647;-90
2022/03/30 15:49:28;;;;;;;12.93;10.00;;;12.60;82.10;;;13.13;54.38;96979.28;4951098;28;112398;-89
2022/03/30 15:51:56;;;;;;;12.30;8.53;;;12.60;82.10;;;13.10;54.37;96978.06;4967012;28;114196;-88
2022/03/30 15:54:23;;;;;;;10.77;9.00;;;12.60;82.00;;;13.11;54.03;96978.88;4967989;28;123532;-88